sensor_id;sensor_type;location;lat;lon;timestamp;P1;durP1;ratioP1;P2;durP2;ratioP2
36189;SDS011;22232;50.914;13.858;2023-02-26T00:01:39;5.25;;;4.18;;
36189;SDS011;22232;50.914;13.858;2023-02-26T00:04:08;4.43;;;3.75;;
36189;SDS011;22232;50.914;13.858;2023-02-26T00:06:37;4.80;;;3.83;;
36189;SDS011;22232;50.914;13.858;2023-02-26T00:09:21;6.07;;;4.28;;
36189;SDS011;22232;50.914;13.858;2023-02-26T00:11:49;5.95;;;3.92;;
36189;SDS011;22232;50.914;13.858;2023-02-26T00:14:17;4.63;;;3.92;;
36189;SDS011;22232;50.914;13.858;2023-02-26T00:16:46;7.25;;;3.92;;
36189;SDS011;22232;50.914;13.858;2023-02-26T00:19:23;3.90;;;3.08;;
36189;SDS011;22232;50.914;13.858;2023-02-26T00:21:50;6.25;;;3.78;;
36189;SDS011;22232;50.914;13.858;2023-02-26T00:24:18;4.43;;;3.75;;
36189;SDS011;22232;50.914;13.858;2023-02-26T00:26:46;3.42;;;3.13;;
36189;SDS011;22232;50.914;13.858;2023-02-26T00:29:13;5.93;;;3.45;;
36189;SDS011;22232;50.914;13.858;2023-02-26T00:31:41;5.30;;;3.78;;
36189;SDS011;22232;50.914;13.858;2023-02-26T00:34:10;5.30;;;3.60;;
36189;SDS011;22232;50.914;13.858;2023-02-26T00:36:43;7.18;;;3.33;;
36189;SDS011;22232;50.914;13.858;2023-02-26T00:42:09;5.43;;;3.78;;
36189;SDS011;22232;50.914;13.858;2023-02-26T00:44:37;7.45;;;3.40;;
36189;SDS011;22232;50.914;13.858;2023-02-26T00:47:15;6.15;;;4.43;;
36189;SDS011;22232;50.914;13.858;2023-02-26T00:50:04;4.97;;;3.63;;
36189;SDS011;22232;50.914;13.858;2023-02-26T00:55:17;5.78;;;4.20;;
36189;SDS011;22232;50.914;13.858;2023-02-26T00:57:45;4.78;;;3.70;;
36189;SDS011;22232;50.914;13.858;2023-02-26T01:00:13;5.22;;;3.85;;
36189;SDS011;22232;50.914;13.858;2023-02-26T01:02:42;5.00;;;3.63;;
36189;SDS011;22232;50.914;13.858;2023-02-26T01:05:10;5.60;;;3.42;;
36189;SDS011;22232;50.914;13.858;2023-02-26T01:07:43;5.18;;;3.28;;
36189;SDS011;22232;50.914;13.858;2023-02-26T01:10:25;5.65;;;3.70;;
36189;SDS011;22232;50.914;13.858;2023-02-26T01:12:53;4.50;;;3.60;;
36189;SDS011;22232;50.914;13.858;2023-02-26T01:15:23;4.63;;;3.08;;
36189;SDS011;22232;50.914;13.858;2023-02-26T01:17:59;4.97;;;3.30;;
36189;SDS011;22232;50.914;13.858;2023-02-26T01:20:36;4.13;;;3.33;;
36189;SDS011;22232;50.914;13.858;2023-02-26T01:23:10;5.93;;;3.33;;
36189;SDS011;22232;50.914;13.858;2023-02-26T01:25:43;5.55;;;3.35;;
36189;SDS011;22232;50.914;13.858;2023-02-26T01:28:16;3.53;;;2.97;;
36189;SDS011;22232;50.914;13.858;2023-02-26T01:30:44;4.68;;;3.20;;
36189;SDS011;22232;50.914;13.858;2023-02-26T01:36:47;4.95;;;3.08;;
36189;SDS011;22232;50.914;13.858;2023-02-26T01:41:48;4.97;;;3.00;;
36189;SDS011;22232;50.914;13.858;2023-02-26T01:47:20;4.50;;;3.35;;
36189;SDS011;22232;50.914;13.858;2023-02-26T01:49:57;3.73;;;2.70;;
36189;SDS011;22232;50.914;13.858;2023-02-26T01:55:01;5.15;;;3.25;;
36189;SDS011;22232;50.914;13.858;2023-02-26T01:57:29;4.95;;;3.50;;
36189;SDS011;22232;50.914;13.858;2023-02-26T01:59:56;6.18;;;3.63;;
36189;SDS011;22232;50.914;13.858;2023-02-26T02:02:24;4.10;;;3.70;;
36189;SDS011;22232;50.914;13.858;2023-02-26T02:04:53;6.70;;;3.92;;
36189;SDS011;22232;50.914;13.858;2023-02-26T02:07:22;6.82;;;3.65;;
36189;SDS011;22232;50.914;13.858;2023-02-26T02:09:50;5.63;;;4.30;;
36189;SDS011;22232;50.914;13.858;2023-02-26T02:20:25;7.95;;;5.25;;
36189;SDS011;22232;50.914;13.858;2023-02-26T02:23:16;7.13;;;4.93;;
36189;SDS011;22232;50.914;13.858;2023-02-26T02:26:04;10.15;;;5.30;;
36189;SDS011;22232;50.914;13.858;2023-02-26T02:28:44;9.55;;;5.95;;
36189;SDS011;22232;50.914;13.858;2023-02-26T02:31:35;7.72;;;5.55;;
36189;SDS011;22232;50.914;13.858;2023-02-26T02:34:15;10.50;;;6.00;;
36189;SDS011;22232;50.914;13.858;2023-02-26T02:44:46;13.93;;;7.43;;
36189;SDS011;22232;50.914;13.858;2023-02-26T02:47:19;15.98;;;7.38;;
36189;SDS011;22232;50.914;13.858;2023-02-26T02:49:50;15.05;;;7.57;;
36189;SDS011;22232;50.914;13.858;2023-02-26T02:52:34;12.60;;;7.32;;
36189;SDS011;22232;50.914;13.858;2023-02-26T02:55:10;10.77;;;7.68;;
36189;SDS011;22232;50.914;13.858;2023-02-26T02:57:45;15.43;;;7.50;;
36189;SDS011;22232;50.914;13.858;2023-02-26T03:00:18;13.10;;;7.63;;
36189;SDS011;22232;50.914;13.858;2023-02-26T03:06:03;11.75;;;7.50;;
36189;SDS011;22232;50.914;13.858;2023-02-26T03:08:33;14.48;;;7.35;;
36189;SDS011;22232;50.914;13.858;2023-02-26T03:11:04;12.70;;;8.02;;
36189;SDS011;22232;50.914;13.858;2023-02-26T03:13:32;14.50;;;7.97;;
36189;SDS011;22232;50.914;13.858;2023-02-26T03:18:59;14.20;;;7.05;;
36189;SDS011;22232;50.914;13.858;2023-02-26T03:24:44;13.50;;;6.68;;
36189;SDS011;22232;50.914;13.858;2023-02-26T03:27:29;11.30;;;6.35;;
36189;SDS011;22232;50.914;13.858;2023-02-26T03:30:09;9.48;;;6.28;;
36189;SDS011;22232;50.914;13.858;2023-02-26T03:32:53;10.23;;;6.38;;
36189;SDS011;22232;50.914;13.858;2023-02-26T03:38:39;9.13;;;5.25;;
36189;SDS011;22232;50.914;13.858;2023-02-26T03:41:15;10.55;;;6.35;;
36189;SDS011;22232;50.914;13.858;2023-02-26T03:44:17;10.43;;;6.40;;
36189;SDS011;22232;50.914;13.858;2023-02-26T03:46:48;11.75;;;6.22;;
36189;SDS011;22232;50.914;13.858;2023-02-26T03:49:25;9.15;;;5.60;;
36189;SDS011;22232;50.914;13.858;2023-02-26T03:51:58;12.40;;;5.47;;
36189;SDS011;22232;50.914;13.858;2023-02-26T03:55:05;10.95;;;6.35;;
36189;SDS011;22232;50.914;13.858;2023-02-26T03:58:14;10.98;;;6.07;;
36189;SDS011;22232;50.914;13.858;2023-02-26T04:01:02;12.00;;;5.55;;
36189;SDS011;22232;50.914;13.858;2023-02-26T04:03:35;13.65;;;7.10;;
36189;SDS011;22232;50.914;13.858;2023-02-26T04:06:09;11.75;;;7.43;;
36189;SDS011;22232;50.914;13.858;2023-02-26T04:08:37;14.02;;;7.50;;
36189;SDS011;22232;50.914;13.858;2023-02-26T04:11:17;15.25;;;7.07;;
36189;SDS011;22232;50.914;13.858;2023-02-26T04:13:46;10.98;;;6.25;;
36189;SDS011;22232;50.914;13.858;2023-02-26T04:16:15;12.73;;;6.75;;
36189;SDS011;22232;50.914;13.858;2023-02-26T04:18:44;10.38;;;7.20;;
36189;SDS011;22232;50.914;13.858;2023-02-26T04:21:13;24.55;;;7.47;;
36189;SDS011;22232;50.914;13.858;2023-02-26T04:23:43;14.65;;;7.57;;
36189;SDS011;22232;50.914;13.858;2023-02-26T04:26:10;14.52;;;7.68;;
36189;SDS011;22232;50.914;13.858;2023-02-26T04:28:40;18.10;;;8.52;;
36189;SDS011;22232;50.914;13.858;2023-02-26T04:31:08;15.80;;;8.13;;
36189;SDS011;22232;50.914;13.858;2023-02-26T04:33:38;15.75;;;7.63;;
36189;SDS011;22232;50.914;13.858;2023-02-26T04:36:05;17.25;;;8.13;;
36189;SDS011;22232;50.914;13.858;2023-02-26T04:38:33;13.98;;;7.55;;
36189;SDS011;22232;50.914;13.858;2023-02-26T04:41:01;15.45;;;7.65;;
36189;SDS011;22232;50.914;13.858;2023-02-26T04:43:29;12.90;;;6.90;;
36189;SDS011;22232;50.914;13.858;2023-02-26T04:46:13;13.32;;;6.90;;
36189;SDS011;22232;50.914;13.858;2023-02-26T04:48:41;15.60;;;8.15;;
36189;SDS011;22232;50.914;13.858;2023-02-26T04:51:08;12.93;;;7.03;;
36189;SDS011;22232;50.914;13.858;2023-02-26T04:53:36;13.57;;;6.93;;
36189;SDS011;22232;50.914;13.858;2023-02-26T04:56:05;14.68;;;7.38;;
36189;SDS011;22232;50.914;13.858;2023-02-26T04:58:34;18.58;;;7.00;;
36189;SDS011;22232;50.914;13.858;2023-02-26T05:01:07;12.93;;;7.43;;
36189;SDS011;22232;50.914;13.858;2023-02-26T05:03:35;14.45;;;7.22;;
36189;SDS011;22232;50.914;13.858;2023-02-26T05:06:02;12.88;;;6.22;;
36189;SDS011;22232;50.914;13.858;2023-02-26T05:08:30;12.07;;;6.30;;
36189;SDS011;22232;50.914;13.858;2023-02-26T05:10:58;13.40;;;6.40;;
36189;SDS011;22232;50.914;13.858;2023-02-26T05:13:26;11.20;;;5.68;;
36189;SDS011;22232;50.914;13.858;2023-02-26T05:15:54;12.70;;;6.97;;
36189;SDS011;22232;50.914;13.858;2023-02-26T05:18:22;10.00;;;5.30;;
36189;SDS011;22232;50.914;13.858;2023-02-26T05:20:51;8.13;;;4.82;;
36189;SDS011;22232;50.914;13.858;2023-02-26T05:23:22;11.55;;;4.63;;
36189;SDS011;22232;50.914;13.858;2023-02-26T05:25:50;8.82;;;4.57;;
36189;SDS011;22232;50.914;13.858;2023-02-26T05:28:17;11.93;;;4.90;;
36189;SDS011;22232;50.914;13.858;2023-02-26T05:30:45;9.45;;;4.40;;
36189;SDS011;22232;50.914;13.858;2023-02-26T05:33:13;7.47;;;4.47;;
36189;SDS011;22232;50.914;13.858;2023-02-26T05:35:40;9.70;;;4.93;;
36189;SDS011;22232;50.914;13.858;2023-02-26T05:38:08;7.38;;;4.50;;
36189;SDS011;22232;50.914;13.858;2023-02-26T05:40:35;11.82;;;4.55;;
36189;SDS011;22232;50.914;13.858;2023-02-26T05:43:03;14.60;;;5.13;;
36189;SDS011;22232;50.914;13.858;2023-02-26T05:45:30;12.38;;;5.05;;
36189;SDS011;22232;50.914;13.858;2023-02-26T05:47:58;10.73;;;4.80;;
36189;SDS011;22232;50.914;13.858;2023-02-26T05:50:25;12.85;;;4.75;;
36189;SDS011;22232;50.914;13.858;2023-02-26T05:52:53;14.40;;;4.88;;
36189;SDS011;22232;50.914;13.858;2023-02-26T05:55:21;8.10;;;4.60;;
36189;SDS011;22232;50.914;13.858;2023-02-26T05:57:49;8.43;;;4.72;;
36189;SDS011;22232;50.914;13.858;2023-02-26T06:00:17;8.57;;;4.72;;
36189;SDS011;22232;50.914;13.858;2023-02-26T06:02:44;11.43;;;4.47;;
36189;SDS011;22232;50.914;13.858;2023-02-26T06:05:12;9.25;;;4.32;;
36189;SDS011;22232;50.914;13.858;2023-02-26T06:07:40;13.10;;;5.13;;
36189;SDS011;22232;50.914;13.858;2023-02-26T06:10:08;13.10;;;5.10;;
36189;SDS011;22232;50.914;13.858;2023-02-26T06:12:36;11.60;;;5.43;;
36189;SDS011;22232;50.914;13.858;2023-02-26T06:15:05;11.52;;;5.03;;
36189;SDS011;22232;50.914;13.858;2023-02-26T06:17:34;10.20;;;4.97;;
36189;SDS011;22232;50.914;13.858;2023-02-26T06:20:04;11.85;;;5.88;;
36189;SDS011;22232;50.914;13.858;2023-02-26T06:22:32;12.10;;;5.50;;
36189;SDS011;22232;50.914;13.858;2023-02-26T06:25:00;15.88;;;5.53;;
36189;SDS011;22232;50.914;13.858;2023-02-26T06:27:28;16.40;;;5.65;;
36189;SDS011;22232;50.914;13.858;2023-02-26T06:29:55;10.65;;;5.88;;
36189;SDS011;22232;50.914;13.858;2023-02-26T06:32:23;13.63;;;5.10;;
36189;SDS011;22232;50.914;13.858;2023-02-26T06:34:50;12.10;;;4.95;;
36189;SDS011;22232;50.914;13.858;2023-02-26T06:37:18;11.10;;;5.13;;
36189;SDS011;22232;50.914;13.858;2023-02-26T06:39:45;12.25;;;5.55;;
36189;SDS011;22232;50.914;13.858;2023-02-26T06:42:13;13.20;;;4.93;;
36189;SDS011;22232;50.914;13.858;2023-02-26T06:44:40;13.88;;;5.45;;
36189;SDS011;22232;50.914;13.858;2023-02-26T06:47:08;10.48;;;4.68;;
36189;SDS011;22232;50.914;13.858;2023-02-26T06:49:35;15.25;;;4.95;;
36189;SDS011;22232;50.914;13.858;2023-02-26T06:52:03;15.88;;;5.95;;
36189;SDS011;22232;50.914;13.858;2023-02-26T06:54:30;11.63;;;5.50;;
36189;SDS011;22232;50.914;13.858;2023-02-26T06:56:58;11.60;;;5.82;;
36189;SDS011;22232;50.914;13.858;2023-02-26T06:59:26;10.18;;;5.78;;
36189;SDS011;22232;50.914;13.858;2023-02-26T07:01:54;12.00;;;5.38;;
36189;SDS011;22232;50.914;13.858;2023-02-26T07:04:23;15.43;;;6.18;;
36189;SDS011;22232;50.914;13.858;2023-02-26T07:06:51;8.70;;;5.30;;
36189;SDS011;22232;50.914;13.858;2023-02-26T07:09:18;12.55;;;5.38;;
36189;SDS011;22232;50.914;13.858;2023-02-26T07:11:46;9.77;;;4.80;;
36189;SDS011;22232;50.914;13.858;2023-02-26T07:14:14;8.60;;;4.50;;
36189;SDS011;22232;50.914;13.858;2023-02-26T07:16:42;8.63;;;4.70;;
36189;SDS011;22232;50.914;13.858;2023-02-26T07:19:09;10.68;;;4.75;;
36189;SDS011;22232;50.914;13.858;2023-02-26T07:21:37;12.93;;;4.30;;
36189;SDS011;22232;50.914;13.858;2023-02-26T07:24:04;8.25;;;4.38;;
36189;SDS011;22232;50.914;13.858;2023-02-26T07:26:32;9.88;;;4.70;;
36189;SDS011;22232;50.914;13.858;2023-02-26T07:29:00;10.65;;;4.40;;
36189;SDS011;22232;50.914;13.858;2023-02-26T07:31:27;8.30;;;4.20;;
36189;SDS011;22232;50.914;13.858;2023-02-26T07:33:55;10.45;;;4.45;;
36189;SDS011;22232;50.914;13.858;2023-02-26T07:36:23;8.32;;;4.60;;
36189;SDS011;22232;50.914;13.858;2023-02-26T07:38:51;7.13;;;4.53;;
36189;SDS011;22232;50.914;13.858;2023-02-26T07:41:18;8.70;;;4.00;;
36189;SDS011;22232;50.914;13.858;2023-02-26T07:43:46;10.80;;;3.90;;
36189;SDS011;22232;50.914;13.858;2023-02-26T07:46:13;8.77;;;4.10;;
36189;SDS011;22232;50.914;13.858;2023-02-26T07:48:41;8.57;;;4.03;;
36189;SDS011;22232;50.914;13.858;2023-02-26T07:51:08;10.88;;;4.65;;
36189;SDS011;22232;50.914;13.858;2023-02-26T07:53:37;11.38;;;3.60;;
36189;SDS011;22232;50.914;13.858;2023-02-26T07:56:04;9.45;;;3.75;;
36189;SDS011;22232;50.914;13.858;2023-02-26T07:58:32;8.43;;;3.60;;
36189;SDS011;22232;50.914;13.858;2023-02-26T08:00:59;9.75;;;4.30;;
36189;SDS011;22232;50.914;13.858;2023-02-26T08:03:27;9.93;;;4.10;;
36189;SDS011;22232;50.914;13.858;2023-02-26T08:05:55;13.98;;;4.40;;
36189;SDS011;22232;50.914;13.858;2023-02-26T08:08:23;8.85;;;4.10;;
36189;SDS011;22232;50.914;13.858;2023-02-26T08:10:50;12.70;;;4.70;;
36189;SDS011;22232;50.914;13.858;2023-02-26T08:13:18;10.98;;;4.47;;
36189;SDS011;22232;50.914;13.858;2023-02-26T08:15:46;10.35;;;4.28;;
36189;SDS011;22232;50.914;13.858;2023-02-26T08:18:14;17.83;;;4.72;;
36189;SDS011;22232;50.914;13.858;2023-02-26T08:20:42;8.30;;;4.20;;
36189;SDS011;22232;50.914;13.858;2023-02-26T08:23:09;8.73;;;4.30;;
36189;SDS011;22232;50.914;13.858;2023-02-26T08:25:37;6.10;;;3.95;;
36189;SDS011;22232;50.914;13.858;2023-02-26T08:28:05;5.15;;;3.47;;
36189;SDS011;22232;50.914;13.858;2023-02-26T08:30:32;7.00;;;3.55;;
36189;SDS011;22232;50.914;13.858;2023-02-26T08:33:00;8.73;;;3.55;;
36189;SDS011;22232;50.914;13.858;2023-02-26T08:35:27;7.80;;;3.53;;
36189;SDS011;22232;50.914;13.858;2023-02-26T08:37:55;7.70;;;4.78;;
36189;SDS011;22232;50.914;13.858;2023-02-26T08:40:23;8.35;;;3.15;;
36189;SDS011;22232;50.914;13.858;2023-02-26T08:42:51;9.13;;;3.53;;
36189;SDS011;22232;50.914;13.858;2023-02-26T08:45:18;8.50;;;3.55;;
36189;SDS011;22232;50.914;13.858;2023-02-26T08:47:46;8.43;;;3.70;;
36189;SDS011;22232;50.914;13.858;2023-02-26T08:50:23;5.40;;;2.92;;
36189;SDS011;22232;50.914;13.858;2023-02-26T08:52:52;5.32;;;3.72;;
36189;SDS011;22232;50.914;13.858;2023-02-26T08:55:20;7.95;;;3.28;;
36189;SDS011;22232;50.914;13.858;2023-02-26T08:57:48;6.15;;;3.20;;
36189;SDS011;22232;50.914;13.858;2023-02-26T09:00:16;8.05;;;3.35;;
36189;SDS011;22232;50.914;13.858;2023-02-26T09:02:44;4.88;;;3.33;;
36189;SDS011;22232;50.914;13.858;2023-02-26T09:05:12;5.13;;;3.45;;
36189;SDS011;22232;50.914;13.858;2023-02-26T09:07:43;8.02;;;4.18;;
36189;SDS011;22232;50.914;13.858;2023-02-26T09:10:11;9.32;;;3.47;;
36189;SDS011;22232;50.914;13.858;2023-02-26T09:12:40;5.43;;;2.97;;
36189;SDS011;22232;50.914;13.858;2023-02-26T09:15:08;7.60;;;3.05;;
36189;SDS011;22232;50.914;13.858;2023-02-26T09:17:37;8.35;;;3.20;;
36189;SDS011;22232;50.914;13.858;2023-02-26T09:20:05;10.75;;;3.63;;
36189;SDS011;22232;50.914;13.858;2023-02-26T09:22:34;7.20;;;3.20;;
36189;SDS011;22232;50.914;13.858;2023-02-26T09:25:03;4.78;;;3.00;;
36189;SDS011;22232;50.914;13.858;2023-02-26T09:27:31;6.97;;;2.97;;
36189;SDS011;22232;50.914;13.858;2023-02-26T09:29:59;7.78;;;4.03;;
36189;SDS011;22232;50.914;13.858;2023-02-26T09:32:26;6.78;;;3.72;;
36189;SDS011;22232;50.914;13.858;2023-02-26T09:34:54;8.70;;;4.40;;
36189;SDS011;22232;50.914;13.858;2023-02-26T09:37:21;8.27;;;3.92;;
36189;SDS011;22232;50.914;13.858;2023-02-26T09:39:49;7.57;;;3.42;;
36189;SDS011;22232;50.914;13.858;2023-02-26T09:42:34;9.15;;;4.20;;
36189;SDS011;22232;50.914;13.858;2023-02-26T09:45:20;10.30;;;3.88;;
36189;SDS011;22232;50.914;13.858;2023-02-26T09:47:52;4.68;;;3.08;;
36189;SDS011;22232;50.914;13.858;2023-02-26T09:52:55;5.45;;;3.38;;
36189;SDS011;22232;50.914;13.858;2023-02-26T09:55:37;6.75;;;3.05;;
36189;SDS011;22232;50.914;13.858;2023-02-26T09:58:21;10.43;;;3.22;;
36189;SDS011;22232;50.914;13.858;2023-02-26T10:01:01;11.48;;;3.60;;
36189;SDS011;22232;50.914;13.858;2023-02-26T10:06:34;7.40;;;3.30;;
36189;SDS011;22232;50.914;13.858;2023-02-26T10:09:30;11.98;;;3.80;;
36189;SDS011;22232;50.914;13.858;2023-02-26T10:12:06;12.75;;;3.45;;
36189;SDS011;22232;50.914;13.858;2023-02-26T10:17:33;11.77;;;2.53;;
36189;SDS011;22232;50.914;13.858;2023-02-26T10:20:10;7.03;;;3.63;;
36189;SDS011;22232;50.914;13.858;2023-02-26T10:22:50;6.35;;;2.63;;
36189;SDS011;22232;50.914;13.858;2023-02-26T10:25:39;9.32;;;3.00;;
36189;SDS011;22232;50.914;13.858;2023-02-26T10:28:23;6.93;;;2.53;;
36189;SDS011;22232;50.914;13.858;2023-02-26T10:31:24;8.80;;;2.85;;
36189;SDS011;22232;50.914;13.858;2023-02-26T10:42:26;6.07;;;2.25;;
36189;SDS011;22232;50.914;13.858;2023-02-26T10:50:22;6.30;;;1.95;;
36189;SDS011;22232;50.914;13.858;2023-02-26T10:52:50;7.22;;;1.90;;
36189;SDS011;22232;50.914;13.858;2023-02-26T10:57:59;7.70;;;2.80;;
36189;SDS011;22232;50.914;13.858;2023-02-26T11:00:43;5.95;;;2.33;;
36189;SDS011;22232;50.914;13.858;2023-02-26T11:03:15;12.13;;;5.68;;
36189;SDS011;22232;50.914;13.858;2023-02-26T11:06:03;9.45;;;3.40;;
36189;SDS011;22232;50.914;13.858;2023-02-26T11:08:34;5.93;;;2.20;;
36189;SDS011;22232;50.914;13.858;2023-02-26T11:11:08;11.88;;;3.78;;
36189;SDS011;22232;50.914;13.858;2023-02-26T11:13:37;10.82;;;2.40;;
36189;SDS011;22232;50.914;13.858;2023-02-26T11:16:09;4.10;;;2.00;;
36189;SDS011;22232;50.914;13.858;2023-02-26T11:18:41;6.40;;;3.25;;
36189;SDS011;22232;50.914;13.858;2023-02-26T11:21:18;5.47;;;3.28;;
36189;SDS011;22232;50.914;13.858;2023-02-26T11:23:56;6.30;;;2.30;;
36189;SDS011;22232;50.914;13.858;2023-02-26T11:26:30;3.70;;;1.73;;
36189;SDS011;22232;50.914;13.858;2023-02-26T11:29:00;5.73;;;1.90;;
36189;SDS011;22232;50.914;13.858;2023-02-26T11:31:28;5.72;;;1.83;;
36189;SDS011;22232;50.914;13.858;2023-02-26T11:34:04;2.88;;;1.40;;
36189;SDS011;22232;50.914;13.858;2023-02-26T11:36:36;2.72;;;1.77;;
36189;SDS011;22232;50.914;13.858;2023-02-26T11:39:07;5.55;;;2.58;;
36189;SDS011;22232;50.914;13.858;2023-02-26T11:41:56;5.07;;;2.42;;
36189;SDS011;22232;50.914;13.858;2023-02-26T11:44:31;4.40;;;1.83;;
36189;SDS011;22232;50.914;13.858;2023-02-26T11:47:01;6.50;;;1.63;;
36189;SDS011;22232;50.914;13.858;2023-02-26T11:49:33;4.53;;;1.52;;
36189;SDS011;22232;50.914;13.858;2023-02-26T11:54:38;4.38;;;1.92;;
36189;SDS011;22232;50.914;13.858;2023-02-26T11:57:06;4.18;;;1.48;;
36189;SDS011;22232;50.914;13.858;2023-02-26T11:59:46;5.97;;;1.45;;
36189;SDS011;22232;50.914;13.858;2023-02-26T12:02:20;4.10;;;1.37;;
36189;SDS011;22232;50.914;13.858;2023-02-26T12:04:51;3.97;;;1.48;;
36189;SDS011;22232;50.914;13.858;2023-02-26T12:07:20;3.65;;;1.83;;
36189;SDS011;22232;50.914;13.858;2023-02-26T12:09:48;3.28;;;1.70;;
36189;SDS011;22232;50.914;13.858;2023-02-26T12:21:17;3.42;;;1.60;;
36189;SDS011;22232;50.914;13.858;2023-02-26T12:35:13;4.80;;;1.70;;
36189;SDS011;22232;50.914;13.858;2023-02-26T12:41:00;2.88;;;2.00;;
36189;SDS011;22232;50.914;13.858;2023-02-26T12:43:45;8.10;;;2.00;;
36189;SDS011;22232;50.914;13.858;2023-02-26T13:20:31;3.85;;;1.35;;
36189;SDS011;22232;50.914;13.858;2023-02-26T13:23:09;8.30;;;1.55;;
36189;SDS011;22232;50.914;13.858;2023-02-26T13:25:50;3.65;;;1.70;;
36189;SDS011;22232;50.914;13.858;2023-02-26T13:30:51;8.32;;;2.55;;
36189;SDS011;22232;50.914;13.858;2023-02-26T13:33:22;8.40;;;2.55;;
36189;SDS011;22232;50.914;13.858;2023-02-26T13:35:53;6.77;;;1.60;;
36189;SDS011;22232;50.914;13.858;2023-02-26T13:41:15;4.10;;;1.90;;
36189;SDS011;22232;50.914;13.858;2023-02-26T13:50:17;3.88;;;1.95;;
36189;SDS011;22232;50.914;13.858;2023-02-26T13:52:34;6.00;;;1.80;;
36189;SDS011;22232;50.914;13.858;2023-02-26T13:55:03;12.50;;;5.47;;
36189;SDS011;22232;50.914;13.858;2023-02-26T13:57:36;2.97;;;1.63;;
36189;SDS011;22232;50.914;13.858;2023-02-26T14:00:17;5.50;;;1.90;;
36189;SDS011;22232;50.914;13.858;2023-02-26T14:03:09;3.97;;;1.52;;
36189;SDS011;22232;50.914;13.858;2023-02-26T14:16:49;5.57;;;2.40;;
36189;SDS011;22232;50.914;13.858;2023-02-26T14:19:41;2.75;;;2.03;;
36189;SDS011;22232;50.914;13.858;2023-02-26T14:27:40;5.25;;;1.80;;
36189;SDS011;22232;50.914;13.858;2023-02-26T14:35:38;1.50;;;1.30;;
36189;SDS011;22232;50.914;13.858;2023-02-26T14:38:13;5.68;;;2.00;;
36189;SDS011;22232;50.914;13.858;2023-02-26T14:41:35;3.42;;;1.58;;
36189;SDS011;22232;50.914;13.858;2023-02-26T14:44:31;6.68;;;2.88;;
36189;SDS011;22232;50.914;13.858;2023-02-26T14:46:54;4.38;;;2.33;;
36189;SDS011;22232;50.914;13.858;2023-02-26T14:49:32;3.70;;;1.70;;
36189;SDS011;22232;50.914;13.858;2023-02-26T14:52:13;5.13;;;1.83;;
36189;SDS011;22232;50.914;13.858;2023-02-26T14:55:06;6.10;;;3.53;;
36189;SDS011;22232;50.914;13.858;2023-02-26T15:06:04;7.68;;;4.05;;
36189;SDS011;22232;50.914;13.858;2023-02-26T15:16:55;2.67;;;1.65;;
36189;SDS011;22232;50.914;13.858;2023-02-26T15:22:21;3.05;;;1.20;;
36189;SDS011;22232;50.914;13.858;2023-02-26T15:24:51;2.92;;;1.27;;
36189;SDS011;22232;50.914;13.858;2023-02-26T15:27:19;2.83;;;1.27;;
36189;SDS011;22232;50.914;13.858;2023-02-26T15:29:47;4.57;;;1.50;;
36189;SDS011;22232;50.914;13.858;2023-02-26T15:32:23;3.47;;;1.48;;
36189;SDS011;22232;50.914;13.858;2023-02-26T15:35:00;7.28;;;3.95;;
36189;SDS011;22232;50.914;13.858;2023-02-26T15:37:30;5.20;;;2.60;;
36189;SDS011;22232;50.914;13.858;2023-02-26T15:39:59;5.63;;;2.83;;
36189;SDS011;22232;50.914;13.858;2023-02-26T15:42:33;9.00;;;4.05;;
36189;SDS011;22232;50.914;13.858;2023-02-26T15:45:08;5.43;;;2.65;;
36189;SDS011;22232;50.914;13.858;2023-02-26T15:47:40;9.13;;;4.45;;
36189;SDS011;22232;50.914;13.858;2023-02-26T15:50:09;4.65;;;2.08;;
36189;SDS011;22232;50.914;13.858;2023-02-26T15:52:42;5.60;;;1.65;;
36189;SDS011;22232;50.914;13.858;2023-02-26T15:55:13;4.57;;;1.40;;
36189;SDS011;22232;50.914;13.858;2023-02-26T15:57:44;4.85;;;2.63;;
36189;SDS011;22232;50.914;13.858;2023-02-26T16:00:15;5.35;;;1.38;;
36189;SDS011;22232;50.914;13.858;2023-02-26T16:02:52;4.47;;;1.13;;
36189;SDS011;22232;50.914;13.858;2023-02-26T16:05:27;5.15;;;1.77;;
36189;SDS011;22232;50.914;13.858;2023-02-26T16:07:55;5.28;;;1.60;;
36189;SDS011;22232;50.914;13.858;2023-02-26T16:10:38;2.65;;;1.60;;
36189;SDS011;22232;50.914;13.858;2023-02-26T16:13:10;2.25;;;1.20;;
36189;SDS011;22232;50.914;13.858;2023-02-26T16:18:12;2.13;;;1.23;;
36189;SDS011;22232;50.914;13.858;2023-02-26T16:20:44;9.40;;;3.25;;
36189;SDS011;22232;50.914;13.858;2023-02-26T16:23:22;4.40;;;1.20;;
36189;SDS011;22232;50.914;13.858;2023-02-26T16:25:55;4.55;;;1.88;;
36189;SDS011;22232;50.914;13.858;2023-02-26T16:28:33;3.05;;;1.35;;
36189;SDS011;22232;50.914;13.858;2023-02-26T16:31:19;4.97;;;1.60;;
36189;SDS011;22232;50.914;13.858;2023-02-26T16:33:53;6.13;;;1.67;;
36189;SDS011;22232;50.914;13.858;2023-02-26T16:36:31;5.40;;;1.77;;
36189;SDS011;22232;50.914;13.858;2023-02-26T16:41:33;5.45;;;1.90;;
36189;SDS011;22232;50.914;13.858;2023-02-26T16:44:09;2.55;;;1.20;;
36189;SDS011;22232;50.914;13.858;2023-02-26T16:47:02;2.63;;;1.38;;
36189;SDS011;22232;50.914;13.858;2023-02-26T16:49:31;2.10;;;1.30;;
36189;SDS011;22232;50.914;13.858;2023-02-26T16:52:00;2.83;;;1.60;;
36189;SDS011;22232;50.914;13.858;2023-02-26T16:54:30;4.68;;;1.30;;
36189;SDS011;22232;50.914;13.858;2023-02-26T16:57:02;5.05;;;1.67;;
36189;SDS011;22232;50.914;13.858;2023-02-26T16:59:35;3.25;;;1.55;;
36189;SDS011;22232;50.914;13.858;2023-02-26T17:02:09;4.53;;;1.65;;
36189;SDS011;22232;50.914;13.858;2023-02-26T17:04:41;6.93;;;1.50;;
36189;SDS011;22232;50.914;13.858;2023-02-26T17:07:16;5.45;;;1.90;;
36189;SDS011;22232;50.914;13.858;2023-02-26T17:09:54;9.67;;;3.20;;
36189;SDS011;22232;50.914;13.858;2023-02-26T17:12:28;8.07;;;2.17;;
36189;SDS011;22232;50.914;13.858;2023-02-26T17:15:38;4.03;;;1.80;;
36189;SDS011;22232;50.914;13.858;2023-02-26T17:18:05;10.20;;;2.88;;
36189;SDS011;22232;50.914;13.858;2023-02-26T17:20:35;7.47;;;3.60;;
36189;SDS011;22232;50.914;13.858;2023-02-26T17:23:04;6.88;;;2.38;;
36189;SDS011;22232;50.914;13.858;2023-02-26T17:25:36;3.60;;;1.90;;
36189;SDS011;22232;50.914;13.858;2023-02-26T17:28:06;4.38;;;2.33;;
36189;SDS011;22232;50.914;13.858;2023-02-26T17:30:36;5.88;;;2.75;;
36189;SDS011;22232;50.914;13.858;2023-02-26T17:33:04;4.82;;;2.40;;
36189;SDS011;22232;50.914;13.858;2023-02-26T17:35:34;4.05;;;2.30;;
36189;SDS011;22232;50.914;13.858;2023-02-26T17:38:01;5.70;;;2.50;;
36189;SDS011;22232;50.914;13.858;2023-02-26T17:40:32;8.55;;;2.67;;
36189;SDS011;22232;50.914;13.858;2023-02-26T17:43:05;3.70;;;1.73;;
36189;SDS011;22232;50.914;13.858;2023-02-26T17:45:33;10.88;;;6.20;;
36189;SDS011;22232;50.914;13.858;2023-02-26T17:48:03;43.35;;;24.95;;
36189;SDS011;22232;50.914;13.858;2023-02-26T17:53:01;32.17;;;17.95;;
36189;SDS011;22232;50.914;13.858;2023-02-26T17:55:30;6.35;;;2.88;;
36189;SDS011;22232;50.914;13.858;2023-02-26T17:57:59;6.20;;;2.72;;
36189;SDS011;22232;50.914;13.858;2023-02-26T18:00:27;4.43;;;2.45;;
36189;SDS011;22232;50.914;13.858;2023-02-26T18:02:54;26.73;;;12.73;;
36189;SDS011;22232;50.914;13.858;2023-02-26T18:05:22;44.35;;;20.33;;
36189;SDS011;22232;50.914;13.858;2023-02-26T18:07:49;23.05;;;11.85;;
36189;SDS011;22232;50.914;13.858;2023-02-26T18:10:21;24.83;;;11.30;;
36189;SDS011;22232;50.914;13.858;2023-02-26T18:12:51;25.50;;;15.63;;